Turukhansk, Russia
Current Conditions -  °F | °C
As of 5:00 PM on Friday 24 Oct 2014 (Local Time) from USNN Reporting Station
Blowing Snow Blowing Snow  
Wind Chill: -7°   Ceiling: 25000
Heat Index: 12°   Visibility: 6mi
Dew Point:   Wind: 22mph
Humidity: 67%   Direction: 70°ENE
Pressure: 29.91"   Gusts: 31mph
Location:  65.82°N, 87.98°E
Report Text: USNN 241000Z 07010G14MPS 9000 DRSN OVC250 M11/M16 Q1013 WSRWY03 NOSIG RMK QFE755 03410165
Loading
Personal Weather Stations






























Interactive Weather Map
Tropical Storm Tracking
New forecast layout! Learn more

10-Day Weather Forecast

Advertisements
Track Severe Weather on mobile